La Valley, Colorado
Current Conditions -  °F | °C
As of 8:14 PM on Monday 20 Oct 2014 (Local Time) from KVTP Reporting Station
Clear Clear  
Wind Chill: 39°   Ceiling: Unl
Heat Index: 43°   Visibility: 10mi
Dew Point: 28°   Wind: 6mph
Humidity: 57%   Direction: 160°SSE
Pressure: 30.38"   Gusts: NA
Location:  37.1568°N, 105.289°W
Report Text: KVTP 210214Z AUTO 16005KT 10SM CLR 06/M02 A3038 RMK AO2
Loading
Personal Weather Stations






























Interactive Weather Map
Tropical Storm Tracking
New forecast layout! Learn more

10-Day Weather Forecast

Advertisements
Track Severe Weather on mobile